sensor_id;sensor_type;location;lat;lon;timestamp;P1;durP1;ratioP1;P2;durP2;ratioP2
12703;SDS011;6416;52.182;7.650;2023-03-01T00:01:00;3.80;;;3.40;;
12703;SDS011;6416;52.182;7.650;2023-03-01T00:03:30;3.70;;;3.30;;
12703;SDS011;6416;52.182;7.650;2023-03-01T00:05:56;3.43;;;3.13;;
12703;SDS011;6416;52.182;7.650;2023-03-01T00:08:22;4.67;;;3.47;;
12703;SDS011;6416;52.182;7.650;2023-03-01T00:10:47;3.63;;;3.13;;
12703;SDS011;6416;52.182;7.650;2023-03-01T00:13:13;3.27;;;2.97;;
12703;SDS011;6416;52.182;7.650;2023-03-01T00:15:39;3.33;;;2.97;;
12703;SDS011;6416;52.182;7.650;2023-03-01T00:18:05;3.83;;;3.33;;
12703;SDS011;6416;52.182;7.650;2023-03-01T00:20:30;3.53;;;3.20;;
12703;SDS011;6416;52.182;7.650;2023-03-01T00:22:56;3.50;;;3.10;;
12703;SDS011;6416;52.182;7.650;2023-03-01T00:25:21;3.67;;;3.33;;
12703;SDS011;6416;52.182;7.650;2023-03-01T00:27:47;3.57;;;3.27;;
12703;SDS011;6416;52.182;7.650;2023-03-01T00:30:12;3.23;;;2.93;;
12703;SDS011;6416;52.182;7.650;2023-03-01T00:32:38;3.03;;;2.77;;
12703;SDS011;6416;52.182;7.650;2023-03-01T00:35:03;3.37;;;3.07;;
12703;SDS011;6416;52.182;7.650;2023-03-01T00:37:29;3.20;;;2.90;;
12703;SDS011;6416;52.182;7.650;2023-03-01T00:39:54;3.73;;;3.43;;
12703;SDS011;6416;52.182;7.650;2023-03-01T00:42:20;3.50;;;2.90;;
12703;SDS011;6416;52.182;7.650;2023-03-01T00:44:45;3.00;;;2.80;;
12703;SDS011;6416;52.182;7.650;2023-03-01T00:47:11;3.30;;;3.00;;
12703;SDS011;6416;52.182;7.650;2023-03-01T00:49:36;3.23;;;2.93;;
12703;SDS011;6416;52.182;7.650;2023-03-01T00:52:03;3.70;;;3.37;;
12703;SDS011;6416;52.182;7.650;2023-03-01T00:54:28;3.30;;;3.00;;
12703;SDS011;6416;52.182;7.650;2023-03-01T00:56:54;4.40;;;3.57;;
12703;SDS011;6416;52.182;7.650;2023-03-01T00:59:19;4.23;;;3.50;;
12703;SDS011;6416;52.182;7.650;2023-03-01T01:01:45;3.00;;;2.80;;
12703;SDS011;6416;52.182;7.650;2023-03-01T01:04:11;3.40;;;3.10;;
12703;SDS011;6416;52.182;7.650;2023-03-01T01:06:42;3.40;;;3.10;;
12703;SDS011;6416;52.182;7.650;2023-03-01T01:09:10;3.80;;;3.37;;
12703;SDS011;6416;52.182;7.650;2023-03-01T01:11:38;3.30;;;3.00;;
12703;SDS011;6416;52.182;7.650;2023-03-01T01:14:03;3.80;;;3.40;;
12703;SDS011;6416;52.182;7.650;2023-03-01T01:16:29;4.17;;;3.80;;
12703;SDS011;6416;52.182;7.650;2023-03-01T01:18:55;3.97;;;3.60;;
12703;SDS011;6416;52.182;7.650;2023-03-01T01:21:22;7.53;;;3.60;;
12703;SDS011;6416;52.182;7.650;2023-03-01T01:23:49;3.83;;;3.50;;
12703;SDS011;6416;52.182;7.650;2023-03-01T01:26:22;4.30;;;3.90;;
12703;SDS011;6416;52.182;7.650;2023-03-01T01:28:53;4.33;;;3.73;;
12703;SDS011;6416;52.182;7.650;2023-03-01T01:31:20;4.10;;;3.70;;
12703;SDS011;6416;52.182;7.650;2023-03-01T01:33:46;3.77;;;3.40;;
12703;SDS011;6416;52.182;7.650;2023-03-01T01:36:12;4.73;;;3.67;;
12703;SDS011;6416;52.182;7.650;2023-03-01T01:38:37;4.07;;;3.60;;
12703;SDS011;6416;52.182;7.650;2023-03-01T01:41:03;4.00;;;3.60;;
12703;SDS011;6416;52.182;7.650;2023-03-01T01:43:33;3.70;;;3.30;;
12703;SDS011;6416;52.182;7.650;2023-03-01T01:46:04;3.73;;;3.43;;
12703;SDS011;6416;52.182;7.650;2023-03-01T01:48:50;3.97;;;3.67;;
12703;SDS011;6416;52.182;7.650;2023-03-01T01:51:21;4.37;;;3.73;;
12703;SDS011;6416;52.182;7.650;2023-03-01T01:53:53;3.37;;;3.07;;
12703;SDS011;6416;52.182;7.650;2023-03-01T01:56:23;3.30;;;3.00;;
12703;SDS011;6416;52.182;7.650;2023-03-01T01:58:50;3.50;;;3.20;;
12703;SDS011;6416;52.182;7.650;2023-03-01T02:01:16;3.67;;;3.37;;
12703;SDS011;6416;52.182;7.650;2023-03-01T02:03:43;3.50;;;3.20;;
12703;SDS011;6416;52.182;7.650;2023-03-01T02:06:19;3.47;;;3.17;;
12703;SDS011;6416;52.182;7.650;2023-03-01T02:09:04;3.30;;;3.00;;
12703;SDS011;6416;52.182;7.650;2023-03-01T02:11:35;3.57;;;3.23;;
12703;SDS011;6416;52.182;7.650;2023-03-01T02:14:01;3.50;;;3.20;;
12703;SDS011;6416;52.182;7.650;2023-03-01T02:16:26;3.97;;;2.77;;
12703;SDS011;6416;52.182;7.650;2023-03-01T02:18:52;3.87;;;3.23;;
12703;SDS011;6416;52.182;7.650;2023-03-01T02:24:10;3.53;;;3.20;;
12703;SDS011;6416;52.182;7.650;2023-03-01T02:26:50;3.17;;;2.87;;
12703;SDS011;6416;52.182;7.650;2023-03-01T02:29:18;3.40;;;3.10;;
12703;SDS011;6416;52.182;7.650;2023-03-01T02:31:44;3.93;;;3.03;;
12703;SDS011;6416;52.182;7.650;2023-03-01T02:34:11;3.50;;;3.20;;
12703;SDS011;6416;52.182;7.650;2023-03-01T02:36:40;3.13;;;2.83;;
12703;SDS011;6416;52.182;7.650;2023-03-01T02:39:38;4.17;;;3.37;;
12703;SDS011;6416;52.182;7.650;2023-03-01T02:42:12;2.90;;;2.67;;
12703;SDS011;6416;52.182;7.650;2023-03-01T02:44:41;3.50;;;3.20;;
12703;SDS011;6416;52.182;7.650;2023-03-01T02:47:06;3.20;;;2.90;;
12703;SDS011;6416;52.182;7.650;2023-03-01T02:49:33;3.13;;;2.83;;
12703;SDS011;6416;52.182;7.650;2023-03-01T02:54:43;4.57;;;3.00;;
12703;SDS011;6416;52.182;7.650;2023-03-01T02:57:13;3.27;;;2.97;;
12703;SDS011;6416;52.182;7.650;2023-03-01T02:59:39;3.40;;;3.10;;
12703;SDS011;6416;52.182;7.650;2023-03-01T03:02:18;3.07;;;2.87;;
12703;SDS011;6416;52.182;7.650;2023-03-01T03:04:46;3.43;;;3.13;;
12703;SDS011;6416;52.182;7.650;2023-03-01T03:07:11;3.23;;;2.93;;
12703;SDS011;6416;52.182;7.650;2023-03-01T03:09:37;3.70;;;3.40;;
12703;SDS011;6416;52.182;7.650;2023-03-01T03:12:02;3.53;;;3.10;;
12703;SDS011;6416;52.182;7.650;2023-03-01T03:14:28;3.87;;;3.37;;
12703;SDS011;6416;52.182;7.650;2023-03-01T03:16:53;3.37;;;3.10;;
12703;SDS011;6416;52.182;7.650;2023-03-01T03:19:19;4.37;;;3.70;;
12703;SDS011;6416;52.182;7.650;2023-03-01T03:21:45;3.10;;;2.80;;
12703;SDS011;6416;52.182;7.650;2023-03-01T03:24:10;3.50;;;3.20;;
12703;SDS011;6416;52.182;7.650;2023-03-01T03:26:36;3.33;;;3.00;;
12703;SDS011;6416;52.182;7.650;2023-03-01T03:29:01;3.37;;;3.07;;
12703;SDS011;6416;52.182;7.650;2023-03-01T03:31:27;3.67;;;3.37;;
12703;SDS011;6416;52.182;7.650;2023-03-01T03:33:53;3.37;;;3.00;;
12703;SDS011;6416;52.182;7.650;2023-03-01T03:36:21;3.70;;;3.33;;
12703;SDS011;6416;52.182;7.650;2023-03-01T03:38:47;3.47;;;3.13;;
12703;SDS011;6416;52.182;7.650;2023-03-01T03:41:13;3.27;;;2.97;;
12703;SDS011;6416;52.182;7.650;2023-03-01T03:43:39;3.77;;;3.10;;
12703;SDS011;6416;52.182;7.650;2023-03-01T03:46:06;4.07;;;3.40;;
12703;SDS011;6416;52.182;7.650;2023-03-01T03:48:36;4.27;;;3.53;;
12703;SDS011;6416;52.182;7.650;2023-03-01T03:51:09;3.67;;;3.10;;
12703;SDS011;6416;52.182;7.650;2023-03-01T03:53:35;3.13;;;2.87;;
12703;SDS011;6416;52.182;7.650;2023-03-01T03:56:01;3.87;;;3.40;;
12703;SDS011;6416;52.182;7.650;2023-03-01T03:58:26;3.20;;;2.90;;
12703;SDS011;6416;52.182;7.650;2023-03-01T04:00:53;3.93;;;3.07;;
12703;SDS011;6416;52.182;7.650;2023-03-01T04:03:20;4.80;;;3.50;;
12703;SDS011;6416;52.182;7.650;2023-03-01T04:05:46;3.60;;;3.30;;
12703;SDS011;6416;52.182;7.650;2023-03-01T04:08:12;3.40;;;3.10;;
12703;SDS011;6416;52.182;7.650;2023-03-01T04:10:39;3.27;;;2.97;;
12703;SDS011;6416;52.182;7.650;2023-03-01T04:13:06;3.40;;;3.10;;
12703;SDS011;6416;52.182;7.650;2023-03-01T04:15:35;3.70;;;3.40;;
12703;SDS011;6416;52.182;7.650;2023-03-01T04:18:00;3.90;;;3.10;;
12703;SDS011;6416;52.182;7.650;2023-03-01T04:20:27;3.60;;;3.07;;
12703;SDS011;6416;52.182;7.650;2023-03-01T04:22:58;3.27;;;2.97;;
12703;SDS011;6416;52.182;7.650;2023-03-01T04:25:25;3.50;;;3.20;;
12703;SDS011;6416;52.182;7.650;2023-03-01T04:27:50;3.30;;;3.00;;
12703;SDS011;6416;52.182;7.650;2023-03-01T04:30:16;3.73;;;2.87;;
12703;SDS011;6416;52.182;7.650;2023-03-01T04:32:42;3.47;;;3.17;;
12703;SDS011;6416;52.182;7.650;2023-03-01T04:35:08;3.80;;;3.50;;
12703;SDS011;6416;52.182;7.650;2023-03-01T04:37:33;3.30;;;3.00;;
12703;SDS011;6416;52.182;7.650;2023-03-01T04:39:59;5.10;;;3.53;;
12703;SDS011;6416;52.182;7.650;2023-03-01T04:42:24;4.23;;;3.30;;
12703;SDS011;6416;52.182;7.650;2023-03-01T04:44:50;3.90;;;3.50;;
12703;SDS011;6416;52.182;7.650;2023-03-01T04:47:15;3.93;;;3.60;;
12703;SDS011;6416;52.182;7.650;2023-03-01T04:49:41;3.90;;;3.50;;
12703;SDS011;6416;52.182;7.650;2023-03-01T04:52:06;7.07;;;3.50;;
12703;SDS011;6416;52.182;7.650;2023-03-01T04:54:32;4.17;;;3.77;;
12703;SDS011;6416;52.182;7.650;2023-03-01T04:56:59;4.50;;;3.57;;
12703;SDS011;6416;52.182;7.650;2023-03-01T04:59:24;3.53;;;3.23;;
12703;SDS011;6416;52.182;7.650;2023-03-01T05:01:51;4.80;;;3.50;;
12703;SDS011;6416;52.182;7.650;2023-03-01T05:04:17;5.20;;;3.47;;
12703;SDS011;6416;52.182;7.650;2023-03-01T05:06:43;4.93;;;3.70;;
12703;SDS011;6416;52.182;7.650;2023-03-01T05:09:08;3.47;;;3.17;;
12703;SDS011;6416;52.182;7.650;2023-03-01T05:11:34;4.23;;;3.47;;
12703;SDS011;6416;52.182;7.650;2023-03-01T05:14:00;3.80;;;3.40;;
12703;SDS011;6416;52.182;7.650;2023-03-01T05:16:25;4.70;;;4.20;;
12703;SDS011;6416;52.182;7.650;2023-03-01T05:18:50;5.30;;;4.10;;
12703;SDS011;6416;52.182;7.650;2023-03-01T05:21:16;4.40;;;4.00;;
12703;SDS011;6416;52.182;7.650;2023-03-01T05:23:42;4.60;;;4.00;;
12703;SDS011;6416;52.182;7.650;2023-03-01T05:26:08;4.17;;;3.77;;
12703;SDS011;6416;52.182;7.650;2023-03-01T05:28:34;5.03;;;3.33;;
12703;SDS011;6416;52.182;7.650;2023-03-01T05:31:00;5.83;;;3.50;;
12703;SDS011;6416;52.182;7.650;2023-03-01T05:33:26;4.10;;;3.70;;
12703;SDS011;6416;52.182;7.650;2023-03-01T05:35:52;4.70;;;3.30;;
12703;SDS011;6416;52.182;7.650;2023-03-01T05:38:18;5.10;;;3.33;;
12703;SDS011;6416;52.182;7.650;2023-03-01T05:40:45;11.40;;;8.40;;
12703;SDS011;6416;52.182;7.650;2023-03-01T05:43:12;7.70;;;5.90;;
12703;SDS011;6416;52.182;7.650;2023-03-01T05:45:39;5.83;;;4.53;;
12703;SDS011;6416;52.182;7.650;2023-03-01T05:48:05;8.43;;;4.20;;
12703;SDS011;6416;52.182;7.650;2023-03-01T05:50:32;4.97;;;4.00;;
12703;SDS011;6416;52.182;7.650;2023-03-01T05:53:02;4.33;;;3.87;;
12703;SDS011;6416;52.182;7.650;2023-03-01T05:55:28;5.43;;;3.80;;
12703;SDS011;6416;52.182;7.650;2023-03-01T05:57:55;3.93;;;3.33;;
12703;SDS011;6416;52.182;7.650;2023-03-01T06:00:22;4.70;;;3.93;;
12703;SDS011;6416;52.182;7.650;2023-03-01T06:02:48;13.20;;;4.00;;
12703;SDS011;6416;52.182;7.650;2023-03-01T06:05:13;4.37;;;3.97;;
12703;SDS011;6416;52.182;7.650;2023-03-01T06:07:39;4.80;;;3.73;;
12703;SDS011;6416;52.182;7.650;2023-03-01T06:10:06;5.37;;;3.60;;
12703;SDS011;6416;52.182;7.650;2023-03-01T06:12:35;5.00;;;3.83;;
12703;SDS011;6416;52.182;7.650;2023-03-01T06:15:02;6.13;;;3.83;;
12703;SDS011;6416;52.182;7.650;2023-03-01T06:17:29;6.77;;;4.43;;
12703;SDS011;6416;52.182;7.650;2023-03-01T06:19:56;5.13;;;4.00;;
12703;SDS011;6416;52.182;7.650;2023-03-01T06:22:22;6.47;;;4.10;;
12703;SDS011;6416;52.182;7.650;2023-03-01T06:24:47;4.63;;;3.80;;
12703;SDS011;6416;52.182;7.650;2023-03-01T06:27:13;6.30;;;4.17;;
12703;SDS011;6416;52.182;7.650;2023-03-01T06:29:38;4.70;;;3.70;;
12703;SDS011;6416;52.182;7.650;2023-03-01T06:32:04;6.37;;;3.90;;
12703;SDS011;6416;52.182;7.650;2023-03-01T06:34:29;5.50;;;3.93;;
12703;SDS011;6416;52.182;7.650;2023-03-01T06:36:55;5.13;;;3.90;;
12703;SDS011;6416;52.182;7.650;2023-03-01T06:39:20;8.07;;;3.80;;
12703;SDS011;6416;52.182;7.650;2023-03-01T06:41:46;4.30;;;3.73;;
12703;SDS011;6416;52.182;7.650;2023-03-01T06:44:11;4.87;;;4.03;;
12703;SDS011;6416;52.182;7.650;2023-03-01T06:46:38;4.80;;;4.20;;
12703;SDS011;6416;52.182;7.650;2023-03-01T06:49:04;6.73;;;4.37;;
12703;SDS011;6416;52.182;7.650;2023-03-01T06:51:29;6.63;;;4.53;;
12703;SDS011;6416;52.182;7.650;2023-03-01T06:53:55;7.23;;;4.23;;
12703;SDS011;6416;52.182;7.650;2023-03-01T06:56:20;5.87;;;4.70;;
12703;SDS011;6416;52.182;7.650;2023-03-01T06:58:46;5.73;;;4.40;;
12703;SDS011;6416;52.182;7.650;2023-03-01T07:01:11;5.20;;;4.70;;
12703;SDS011;6416;52.182;7.650;2023-03-01T07:03:37;5.17;;;4.40;;
12703;SDS011;6416;52.182;7.650;2023-03-01T07:06:02;6.83;;;4.37;;
12703;SDS011;6416;52.182;7.650;2023-03-01T07:08:28;13.67;;;4.30;;
12703;SDS011;6416;52.182;7.650;2023-03-01T07:10:56;7.80;;;4.73;;
12703;SDS011;6416;52.182;7.650;2023-03-01T07:13:22;11.13;;;4.20;;
12703;SDS011;6416;52.182;7.650;2023-03-01T07:15:48;8.90;;;4.30;;
12703;SDS011;6416;52.182;7.650;2023-03-01T07:18:13;17.07;;;4.90;;
12703;SDS011;6416;52.182;7.650;2023-03-01T07:20:39;5.90;;;4.70;;
12703;SDS011;6416;52.182;7.650;2023-03-01T07:23:05;5.40;;;4.10;;
12703;SDS011;6416;52.182;7.650;2023-03-01T07:25:31;10.07;;;5.13;;
12703;SDS011;6416;52.182;7.650;2023-03-01T07:27:57;4.97;;;4.47;;
12703;SDS011;6416;52.182;7.650;2023-03-01T07:30:22;4.80;;;4.33;;
12703;SDS011;6416;52.182;7.650;2023-03-01T07:32:48;5.03;;;4.53;;
12703;SDS011;6416;52.182;7.650;2023-03-01T07:35:14;6.53;;;4.60;;
12703;SDS011;6416;52.182;7.650;2023-03-01T07:37:40;6.80;;;3.97;;
12703;SDS011;6416;52.182;7.650;2023-03-01T07:40:05;4.13;;;3.73;;
12703;SDS011;6416;52.182;7.650;2023-03-01T07:42:31;5.00;;;4.10;;
12703;SDS011;6416;52.182;7.650;2023-03-01T07:44:57;5.50;;;4.17;;
12703;SDS011;6416;52.182;7.650;2023-03-01T07:47:22;3.87;;;3.50;;
12703;SDS011;6416;52.182;7.650;2023-03-01T07:49:48;4.47;;;3.70;;
12703;SDS011;6416;52.182;7.650;2023-03-01T07:52:13;5.67;;;3.67;;
12703;SDS011;6416;52.182;7.650;2023-03-01T07:54:39;3.97;;;3.27;;
12703;SDS011;6416;52.182;7.650;2023-03-01T07:57:07;4.17;;;3.57;;
12703;SDS011;6416;52.182;7.650;2023-03-01T07:59:33;4.00;;;3.60;;
12703;SDS011;6416;52.182;7.650;2023-03-01T08:01:58;5.03;;;4.17;;
12703;SDS011;6416;52.182;7.650;2023-03-01T08:04:24;13.90;;;9.57;;
12703;SDS011;6416;52.182;7.650;2023-03-01T08:06:50;8.27;;;7.27;;
12703;SDS011;6416;52.182;7.650;2023-03-01T08:09:16;6.07;;;5.47;;
12703;SDS011;6416;52.182;7.650;2023-03-01T08:11:41;5.77;;;4.50;;
12703;SDS011;6416;52.182;7.650;2023-03-01T08:14:07;4.83;;;4.33;;
12703;SDS011;6416;52.182;7.650;2023-03-01T08:16:32;6.73;;;4.47;;
12703;SDS011;6416;52.182;7.650;2023-03-01T08:19:02;5.87;;;4.23;;
12703;SDS011;6416;52.182;7.650;2023-03-01T08:21:29;4.53;;;4.10;;
12703;SDS011;6416;52.182;7.650;2023-03-01T08:23:54;4.70;;;3.60;;
12703;SDS011;6416;52.182;7.650;2023-03-01T08:26:20;5.32;;;3.85;;
12703;SDS011;6416;52.182;7.650;2023-03-01T08:28:47;4.05;;;3.67;;
12703;SDS011;6416;52.182;7.650;2023-03-01T08:31:30;5.22;;;3.92;;
12703;SDS011;6416;52.182;7.650;2023-03-01T08:34:00;4.10;;;3.70;;
12703;SDS011;6416;52.182;7.650;2023-03-01T08:36:27;4.85;;;3.90;;
12703;SDS011;6416;52.182;7.650;2023-03-01T08:38:55;4.82;;;3.95;;
12703;SDS011;6416;52.182;7.650;2023-03-01T08:41:21;4.25;;;3.55;;
12703;SDS011;6416;52.182;7.650;2023-03-01T08:43:47;3.58;;;3.28;;
12703;SDS011;6416;52.182;7.650;2023-03-01T08:46:12;4.88;;;3.45;;
12703;SDS011;6416;52.182;7.650;2023-03-01T08:48:38;6.43;;;3.95;;
12703;SDS011;6416;52.182;7.650;2023-03-01T08:51:12;4.13;;;3.72;;
12703;SDS011;6416;52.182;7.650;2023-03-01T08:53:39;4.72;;;3.30;;
12703;SDS011;6416;52.182;7.650;2023-03-01T08:56:06;5.60;;;3.35;;
12703;SDS011;6416;52.182;7.650;2023-03-01T08:58:32;4.13;;;3.65;;
12703;SDS011;6416;52.182;7.650;2023-03-01T09:00:58;4.68;;;3.90;;
12703;SDS011;6416;52.182;7.650;2023-03-01T09:03:24;4.30;;;3.70;;
12703;SDS011;6416;52.182;7.650;2023-03-01T09:05:50;4.68;;;3.58;;
12703;SDS011;6416;52.182;7.650;2023-03-01T09:08:17;4.07;;;3.67;;
12703;SDS011;6416;52.182;7.650;2023-03-01T09:10:43;3.97;;;3.67;;
12703;SDS011;6416;52.182;7.650;2023-03-01T09:13:08;4.38;;;3.58;;
12703;SDS011;6416;52.182;7.650;2023-03-01T09:15:34;4.28;;;3.88;;
12703;SDS011;6416;52.182;7.650;2023-03-01T09:18:01;5.05;;;3.97;;
12703;SDS011;6416;52.182;7.650;2023-03-01T09:20:27;6.63;;;4.35;;
12703;SDS011;6416;52.182;7.650;2023-03-01T09:22:53;4.55;;;4.15;;
12703;SDS011;6416;52.182;7.650;2023-03-01T09:25:18;4.75;;;4.30;;
12703;SDS011;6416;52.182;7.650;2023-03-01T09:27:44;4.97;;;4.47;;
12703;SDS011;6416;52.182;7.650;2023-03-01T09:30:09;5.32;;;4.50;;
12703;SDS011;6416;52.182;7.650;2023-03-01T09:32:35;5.82;;;5.22;;
12703;SDS011;6416;52.182;7.650;2023-03-01T09:35:01;5.00;;;4.60;;
12703;SDS011;6416;52.182;7.650;2023-03-01T09:37:27;6.35;;;4.85;;
12703;SDS011;6416;52.182;7.650;2023-03-01T09:39:52;5.63;;;4.80;;
12703;SDS011;6416;52.182;7.650;2023-03-01T09:42:18;6.65;;;5.00;;
12703;SDS011;6416;52.182;7.650;2023-03-01T09:44:46;6.30;;;5.70;;
12703;SDS011;6416;52.182;7.650;2023-03-01T09:47:20;5.85;;;5.25;;
12703;SDS011;6416;52.182;7.650;2023-03-01T09:49:58;5.05;;;4.60;;
12703;SDS011;6416;52.182;7.650;2023-03-01T09:52:40;4.95;;;4.30;;
12703;SDS011;6416;52.182;7.650;2023-03-01T09:55:21;4.90;;;4.50;;
12703;SDS011;6416;52.182;7.650;2023-03-01T09:58:03;5.03;;;4.53;;
12703;SDS011;6416;52.182;7.650;2023-03-01T10:00:47;5.40;;;3.75;;
12703;SDS011;6416;52.182;7.650;2023-03-01T10:08:19;5.82;;;4.10;;
12703;SDS011;6416;52.182;7.650;2023-03-01T10:10:55;4.50;;;4.10;;
12703;SDS011;6416;52.182;7.650;2023-03-01T10:16:16;4.65;;;3.97;;
12703;SDS011;6416;52.182;7.650;2023-03-01T10:18:48;5.43;;;4.05;;
12703;SDS011;6416;52.182;7.650;2023-03-01T10:21:23;5.25;;;4.75;;
12703;SDS011;6416;52.182;7.650;2023-03-01T10:23:51;4.53;;;4.05;;
12703;SDS011;6416;52.182;7.650;2023-03-01T10:26:30;4.68;;;4.28;;
12703;SDS011;6416;52.182;7.650;2023-03-01T10:29:01;5.18;;;4.75;;
12703;SDS011;6416;52.182;7.650;2023-03-01T10:31:50;4.53;;;4.15;;
12703;SDS011;6416;52.182;7.650;2023-03-01T10:34:18;7.13;;;4.00;;
12703;SDS011;6416;52.182;7.650;2023-03-01T10:36:53;4.07;;;3.70;;
12703;SDS011;6416;52.182;7.650;2023-03-01T10:39:34;3.97;;;3.60;;
12703;SDS011;6416;52.182;7.650;2023-03-01T10:42:01;7.13;;;4.35;;
12703;SDS011;6416;52.182;7.650;2023-03-01T10:44:45;5.18;;;4.00;;
12703;SDS011;6416;52.182;7.650;2023-03-01T10:47:13;5.30;;;4.43;;
12703;SDS011;6416;52.182;7.650;2023-03-01T10:49:52;4.30;;;3.88;;
12703;SDS011;6416;52.182;7.650;2023-03-01T10:52:21;4.60;;;3.67;;
12703;SDS011;6416;52.182;7.650;2023-03-01T10:54:57;4.90;;;4.10;;
12703;SDS011;6416;52.182;7.650;2023-03-01T10:57:29;5.45;;;3.83;;
12703;SDS011;6416;52.182;7.650;2023-03-01T11:00:01;8.32;;;3.88;;
12703;SDS011;6416;52.182;7.650;2023-03-01T11:02:40;4.90;;;4.00;;
12703;SDS011;6416;52.182;7.650;2023-03-01T11:07:53;4.40;;;3.22;;
12703;SDS011;6416;52.182;7.650;2023-03-01T11:10:29;3.55;;;3.25;;
12703;SDS011;6416;52.182;7.650;2023-03-01T11:16:05;3.38;;;3.08;;
12703;SDS011;6416;52.182;7.650;2023-03-01T11:18:34;3.00;;;2.70;;
12703;SDS011;6416;52.182;7.650;2023-03-01T11:21:00;4.25;;;2.97;;
12703;SDS011;6416;52.182;7.650;2023-03-01T11:23:27;4.07;;;2.95;;
12703;SDS011;6416;52.182;7.650;2023-03-01T11:25:55;2.90;;;2.60;;
12703;SDS011;6416;52.182;7.650;2023-03-01T11:28:23;2.92;;;2.60;;
12703;SDS011;6416;52.182;7.650;2023-03-01T11:30:56;4.15;;;2.70;;
12703;SDS011;6416;52.182;7.650;2023-03-01T11:38:41;2.80;;;2.60;;
12703;SDS011;6416;52.182;7.650;2023-03-01T11:41:12;3.25;;;2.95;;
12703;SDS011;6416;52.182;7.650;2023-03-01T11:43:45;4.10;;;3.22;;
12703;SDS011;6416;52.182;7.650;2023-03-01T12:02:45;3.33;;;2.72;;
12703;SDS011;6416;52.182;7.650;2023-03-01T12:08:41;2.97;;;2.70;;
12703;SDS011;6416;52.182;7.650;2023-03-01T12:13:54;3.08;;;2.78;;
12703;SDS011;6416;52.182;7.650;2023-03-01T12:16:32;3.30;;;3.00;;
12703;SDS011;6416;52.182;7.650;2023-03-01T12:22:01;5.40;;;3.42;;
12703;SDS011;6416;52.182;7.650;2023-03-01T12:27:48;2.92;;;2.72;;
12703;SDS011;6416;52.182;7.650;2023-03-01T12:36:14;3.00;;;2.80;;
12703;SDS011;6416;52.182;7.650;2023-03-01T12:44:53;5.80;;;3.10;;
12703;SDS011;6416;52.182;7.650;2023-03-01T12:50:24;5.93;;;3.20;;
12703;SDS011;6416;52.182;7.650;2023-03-01T12:52:57;5.93;;;3.17;;
12703;SDS011;6416;52.182;7.650;2023-03-01T12:55:31;2.90;;;2.60;;
12703;SDS011;6416;52.182;7.650;2023-03-01T13:00:53;3.33;;;3.03;;
12703;SDS011;6416;52.182;7.650;2023-03-01T13:03:28;4.40;;;3.15;;
12703;SDS011;6416;52.182;7.650;2023-03-01T13:11:21;5.78;;;3.28;;
12703;SDS011;6416;52.182;7.650;2023-03-01T13:13:48;4.28;;;3.60;;
12703;SDS011;6416;52.182;7.650;2023-03-01T13:16:22;6.22;;;5.20;;
12703;SDS011;6416;52.182;7.650;2023-03-01T13:21:44;3.92;;;3.30;;
12703;SDS011;6416;52.182;7.650;2023-03-01T13:29:32;3.03;;;2.72;;
12703;SDS011;6416;52.182;7.650;2023-03-01T13:32:17;4.45;;;3.10;;
12703;SDS011;6416;52.182;7.650;2023-03-01T13:34:46;3.58;;;3.05;;
12703;SDS011;6416;52.182;7.650;2023-03-01T13:42:43;3.38;;;2.90;;
12703;SDS011;6416;52.182;7.650;2023-03-01T13:45:18;2.78;;;2.58;;
12703;SDS011;6416;52.182;7.650;2023-03-01T13:47:58;3.15;;;2.75;;
12703;SDS011;6416;52.182;7.650;2023-03-01T13:50:53;4.93;;;3.22;;
12703;SDS011;6416;52.182;7.650;2023-03-01T13:53:24;3.10;;;2.78;;
12703;SDS011;6416;52.182;7.650;2023-03-01T13:55:52;4.53;;;3.90;;
12703;SDS011;6416;52.182;7.650;2023-03-01T13:58:26;4.85;;;3.40;;
12703;SDS011;6416;52.182;7.650;2023-03-01T14:00:56;3.67;;;2.70;;
12703;SDS011;6416;52.182;7.650;2023-03-01T14:03:27;3.25;;;2.80;;
12703;SDS011;6416;52.182;7.650;2023-03-01T14:06:01;3.92;;;3.50;;
12703;SDS011;6416;52.182;7.650;2023-03-01T14:08:28;2.88;;;2.67;;
12703;SDS011;6416;52.182;7.650;2023-03-01T14:19:41;2.70;;;2.35;;
12703;SDS011;6416;52.182;7.650;2023-03-01T14:25:00;4.03;;;2.97;;
12703;SDS011;6416;52.182;7.650;2023-03-01T14:27:41;2.60;;;2.40;;
12703;SDS011;6416;52.182;7.650;2023-03-01T14:32:41;3.77;;;2.70;;
12703;SDS011;6416;52.182;7.650;2023-03-01T14:38:05;2.63;;;2.43;;
12703;SDS011;6416;52.182;7.650;2023-03-01T14:40:32;3.20;;;2.27;;
12703;SDS011;6416;52.182;7.650;2023-03-01T14:43:00;3.67;;;2.90;;
12703;SDS011;6416;52.182;7.650;2023-03-01T14:45:33;3.33;;;2.80;;
12703;SDS011;6416;52.182;7.650;2023-03-01T14:47:59;2.60;;;2.40;;
12703;SDS011;6416;52.182;7.650;2023-03-01T14:50:28;2.30;;;2.10;;
12703;SDS011;6416;52.182;7.650;2023-03-01T14:53:02;3.70;;;2.87;;
12703;SDS011;6416;52.182;7.650;2023-03-01T14:55:32;2.40;;;2.20;;
12703;SDS011;6416;52.182;7.650;2023-03-01T14:58:04;2.40;;;2.20;;
12703;SDS011;6416;52.182;7.650;2023-03-01T15:00:34;2.37;;;2.20;;
12703;SDS011;6416;52.182;7.650;2023-03-01T15:03:05;4.83;;;3.10;;
12703;SDS011;6416;52.182;7.650;2023-03-01T15:05:48;3.87;;;2.83;;
12703;SDS011;6416;52.182;7.650;2023-03-01T15:08:19;3.07;;;2.77;;
12703;SDS011;6416;52.182;7.650;2023-03-01T15:10:58;3.20;;;2.90;;
12703;SDS011;6416;52.182;7.650;2023-03-01T15:13:32;3.97;;;2.67;;
12703;SDS011;6416;52.182;7.650;2023-03-01T15:16:18;2.97;;;2.60;;
12703;SDS011;6416;52.182;7.650;2023-03-01T15:18:45;2.37;;;2.17;;
12703;SDS011;6416;52.182;7.650;2023-03-01T15:23:48;3.10;;;2.20;;
12703;SDS011;6416;52.182;7.650;2023-03-01T15:26:25;4.63;;;2.50;;
12703;SDS011;6416;52.182;7.650;2023-03-01T15:29:15;3.33;;;2.63;;
12703;SDS011;6416;52.182;7.650;2023-03-01T15:31:42;4.23;;;2.60;;
12703;SDS011;6416;52.182;7.650;2023-03-01T15:34:30;2.50;;;2.30;;
12703;SDS011;6416;52.182;7.650;2023-03-01T15:36:56;2.60;;;2.40;;
12703;SDS011;6416;52.182;7.650;2023-03-01T15:39:26;2.67;;;2.43;;
12703;SDS011;6416;52.182;7.650;2023-03-01T15:42:04;2.97;;;2.33;;
12703;SDS011;6416;52.182;7.650;2023-03-01T15:44:35;6.27;;;2.47;;
12703;SDS011;6416;52.182;7.650;2023-03-01T15:47:08;4.60;;;2.70;;
12703;SDS011;6416;52.182;7.650;2023-03-01T15:49:51;3.60;;;3.20;;
12703;SDS011;6416;52.182;7.650;2023-03-01T15:52:21;4.10;;;3.00;;
12703;SDS011;6416;52.182;7.650;2023-03-01T15:54:50;3.67;;;2.80;;
12703;SDS011;6416;52.182;7.650;2023-03-01T15:57:16;7.97;;;3.17;;
12703;SDS011;6416;52.182;7.650;2023-03-01T15:59:41;3.43;;;3.13;;
12703;SDS011;6416;52.182;7.650;2023-03-01T16:02:10;9.70;;;3.63;;
12703;SDS011;6416;52.182;7.650;2023-03-01T16:04:36;5.00;;;3.33;;
12703;SDS011;6416;52.182;7.650;2023-03-01T16:07:02;4.43;;;3.93;;
12703;SDS011;6416;52.182;7.650;2023-03-01T16:09:27;4.37;;;3.53;;
12703;SDS011;6416;52.182;7.650;2023-03-01T16:11:53;4.83;;;3.93;;
12703;SDS011;6416;52.182;7.650;2023-03-01T16:14:19;3.33;;;2.90;;
12703;SDS011;6416;52.182;7.650;2023-03-01T16:16:45;3.23;;;2.53;;
12703;SDS011;6416;52.182;7.650;2023-03-01T16:19:11;3.23;;;2.77;;
12703;SDS011;6416;52.182;7.650;2023-03-01T16:21:37;2.43;;;2.20;;
12703;SDS011;6416;52.182;7.650;2023-03-01T16:24:03;2.50;;;2.30;;
12703;SDS011;6416;52.182;7.650;2023-03-01T16:26:29;3.30;;;2.40;;
12703;SDS011;6416;52.182;7.650;2023-03-01T16:28:55;2.73;;;2.30;;
12703;SDS011;6416;52.182;7.650;2023-03-01T16:31:22;3.70;;;2.13;;
12703;SDS011;6416;52.182;7.650;2023-03-01T16:33:48;2.90;;;2.27;;
12703;SDS011;6416;52.182;7.650;2023-03-01T16:36:13;4.43;;;2.40;;
12703;SDS011;6416;52.182;7.650;2023-03-01T16:38:40;2.67;;;2.20;;
12703;SDS011;6416;52.182;7.650;2023-03-01T16:41:05;2.30;;;2.10;;
12703;SDS011;6416;52.182;7.650;2023-03-01T16:43:37;2.27;;;1.97;;
12703;SDS011;6416;52.182;7.650;2023-03-01T16:46:09;2.30;;;2.00;;
12703;SDS011;6416;52.182;7.650;2023-03-01T16:48:35;3.10;;;2.80;;
12703;SDS011;6416;52.182;7.650;2023-03-01T16:51:01;12.03;;;3.10;;
12703;SDS011;6416;52.182;7.650;2023-03-01T16:53:27;3.90;;;2.50;;
12703;SDS011;6416;52.182;7.650;2023-03-01T16:55:56;2.87;;;2.57;;
12703;SDS011;6416;52.182;7.650;2023-03-01T16:58:22;4.20;;;2.10;;